Terminal Aerodrome Forecast
Issued by NWS Paducah, KY

Home | Current Version | Previous Version | Graphics & Text | Print | Product List | Glossary On
Versions: 1 2 3 4 5 6 7 8 9 10 11 12 13 14 15 16 17 18 19
000
FTUS43 KPAH 051522 AAA
TAFEVV
TAF AMD
KEVV 051522Z 0515/0612 10005KT P6SM OVC015
      TEMPO 0515/0517 BKN250
     FM051800 08005KT P6SM BKN250
     FM060400 05005KT 4SM -RA BR SCT006 OVC015=

USA.gov is the U.S. government's official web portal to all federal, state and local government web resources and services.